North Conway, NH (03860)

10:55 AM EDT on September 04, 2015 (GMT -0400)
Pine Tree School | | Change Station
CLOSE
Current Station
Personal Weather Station
Location: Center Conway, NH
Elevation: 450 ft
Nearby Weather Stations

Elev 450 ft 43.99 °N, 71.06 °W | Updated 7 minutes ago

Clear
Clear
67.8 °F
Feels Like 67.8 °F
N
3.0
Wind Variable Wind from NNE
Gusts 9.0 mph

Today
High -- | Low -- °F
--% Chance of Precip.
Yesterday
High -- | Low -- °F
Precip. -- in
6:10 AM 7:15 PM
Waning Gibbous, 59% visible
Pressure 30.23 in
Visibility 10.0 miles
Clouds Clear
Dew Point 50 °F
Humidity 53%
Rainfall Not available.
Snow Depth Not available.
UV 5 out of 12
Pollen 7.00 out of 12
Air Quality Not available.
Flu Activity Not available.
METAR KIZG 041354Z AUTO VRB05KT 10SM CLR 19/12 A3023 RMK AO2 SLP236 T01890117
Pressure 30.23 in
Visibility 10.0 miles
Clouds Clear
Dew Point 50 °F
Humidity 53%
Rainfall Not available.
Snow Depth Not available.
UV 5 out of 12
Pollen 7.00 out of 12
Air Quality Not available.
Flu Activity Not available.
METAR KIZG 041354Z AUTO VRB05KT 10SM CLR 19/12 A3023 RMK AO2 SLP236 T01890117

10-Day Weather Forecast

×

Almanac

Astronomy

Sep. 04, 2015 Rise Set
Actual Time
Civil Twilight
Nautical Twilight
Astronomical Twilight
Moon
Length of Visible Light
Length of Day
Tomorrow will be .
, % of the Moon is Illuminated

Today's Extremes

State Highs State Lows

Community

WunderPhotos

Upload Photos

1,852,187 photos uploaded!

WunderBlogs® & News

Nearby

Air Quality

  Air Quality AQ Index Pollutant
Not available.

Snow Depth

Station Depth Elevation

Earthquake Activity

City Distance Mag. Time & Date
Minimum magnitude displayed is 2.5.

Coastal Water Temperatures

Place Temperature

Stations

Nearby Weather Stations

Station Location Temp. Windchill Dew Point Humidity Wind Precip. Elev Updated Type